createdAt,value
2018-07-21T00:00:34.723Z,6.07
2018-07-21T00:03:02.750Z,6.13
2018-07-21T00:05:31.479Z,5.20
2018-07-21T00:08:00.585Z,6.10
2018-07-21T00:10:29.318Z,5.93
2018-07-21T00:12:57.423Z,6.00
2018-07-21T00:15:25.436Z,6.10
2018-07-21T00:17:53.429Z,6.53
2018-07-21T00:20:21.370Z,6.90
2018-07-21T00:22:50.032Z,7.10
2018-07-21T00:25:18.001Z,5.80
2018-07-21T00:27:45.928Z,5.80
2018-07-21T00:30:13.920Z,6.10
2018-07-21T00:32:41.924Z,6.90
2018-07-21T00:35:09.904Z,6.33
2018-07-21T00:37:37.907Z,5.93
2018-07-21T00:40:05.946Z,6.90
2018-07-21T00:42:33.901Z,5.20
2018-07-21T00:45:02.674Z,6.00
2018-07-21T00:47:31.688Z,6.27
2018-07-21T00:50:00.849Z,5.70
2018-07-21T00:52:29.124Z,6.70
2018-07-21T00:54:57.220Z,6.53
2018-07-21T00:57:25.210Z,7.77
2018-07-21T00:59:53.175Z,5.70
2018-07-21T01:02:21.199Z,7.80
2018-07-21T01:04:49.186Z,5.73
2018-07-21T01:07:17.148Z,5.73
2018-07-21T01:09:45.156Z,6.77
2018-07-21T01:12:13.136Z,6.67
2018-07-21T01:14:41.097Z,6.93
2018-07-21T01:17:09.317Z,8.97
2018-07-21T01:19:37.332Z,8.60
2018-07-21T01:22:05.450Z,7.90
2018-07-21T01:24:33.908Z,7.20
2018-07-21T01:27:02.903Z,7.07
2018-07-21T01:29:31.708Z,7.13
2018-07-21T01:31:59.814Z,6.80
2018-07-21T01:34:27.977Z,6.63
2018-07-21T01:36:55.993Z,6.73
2018-07-21T01:39:24.037Z,7.47
2018-07-21T01:41:51.979Z,6.63
2018-07-21T01:44:19.967Z,6.40
2018-07-21T01:46:47.892Z,6.90
2018-07-21T01:49:15.858Z,5.87
2018-07-21T01:51:43.845Z,5.70
2018-07-21T01:54:11.818Z,7.30
2018-07-21T01:56:39.772Z,7.77
2018-07-21T01:59:07.741Z,7.20
2018-07-21T02:01:35.810Z,6.73
2018-07-21T02:04:04.667Z,6.97
2018-07-21T02:06:32.644Z,7.50
2018-07-21T02:09:00.599Z,8.10
2018-07-21T02:11:28.556Z,7.00
2018-07-21T02:13:56.535Z,7.60
2018-07-21T02:16:24.517Z,7.17
2018-07-21T02:18:52.459Z,6.60
2018-07-21T02:21:20.449Z,6.80
2018-07-21T02:23:48.467Z,7.77
2018-07-21T02:26:16.419Z,7.60
2018-07-21T02:28:44.352Z,6.57
2018-07-21T02:31:12.322Z,6.60
2018-07-21T02:33:40.788Z,7.37
2018-07-21T02:36:09.817Z,7.50
2018-07-21T02:38:38.532Z,7.03
2018-07-21T02:41:06.551Z,9.20
2018-07-21T02:43:34.648Z,6.93
2018-07-21T02:46:02.656Z,8.70
2018-07-21T02:48:30.608Z,9.07
2018-07-21T02:50:58.651Z,6.50
2018-07-21T02:53:26.592Z,7.50
2018-07-21T02:55:54.561Z,6.87
2018-07-21T02:58:22.492Z,7.47
2018-07-21T03:00:50.454Z,7.17
2018-07-21T03:03:18.402Z,7.13
2018-07-21T03:05:46.397Z,8.20
2018-07-21T03:08:15.243Z,8.00
2018-07-21T03:10:43.202Z,7.83
2018-07-21T03:13:11.599Z,8.77
2018-07-21T03:15:40.617Z,8.67
2018-07-21T03:18:09.264Z,8.40
2018-07-21T03:20:37.247Z,7.87
2018-07-21T03:23:05.318Z,8.30
2018-07-21T03:25:34.033Z,7.47
2018-07-21T03:28:01.983Z,9.00
2018-07-21T03:30:29.970Z,8.60
2018-07-21T03:32:57.929Z,8.17
2018-07-21T03:35:25.880Z,8.50
2018-07-21T03:37:53.967Z,8.67
2018-07-21T03:40:21.921Z,7.67
2018-07-21T03:42:49.945Z,8.90
2018-07-21T03:45:17.922Z,8.90
2018-07-21T03:47:45.897Z,8.60
2018-07-21T03:50:13.914Z,8.30
2018-07-21T03:52:42.411Z,7.87
2018-07-21T03:55:11.522Z,8.87
2018-07-21T03:57:40.165Z,8.33
2018-07-21T04:00:08.139Z,8.80
2018-07-21T04:02:36.203Z,9.37
2018-07-21T04:05:04.185Z,10.10
2018-07-21T04:07:32.168Z,9.60
2018-07-21T04:10:00.105Z,10.23
2018-07-21T04:12:28.085Z,9.30
2018-07-21T04:14:56.065Z,8.30
2018-07-21T04:17:27.179Z,8.23
2018-07-21T04:19:55.974Z,8.70
2018-07-21T04:22:25.277Z,7.97
2018-07-21T04:24:53.429Z,9.40
2018-07-21T04:27:22.007Z,8.40
2018-07-21T04:29:50.003Z,8.43
2018-07-21T04:32:17.972Z,8.60
2018-07-21T04:34:45.984Z,7.40
2018-07-21T04:37:14.112Z,7.00
2018-07-21T04:39:43.013Z,7.43
2018-07-21T04:42:12.118Z,7.10
2018-07-21T04:44:41.122Z,7.40
2018-07-21T04:47:09.187Z,7.03
2018-07-21T04:49:37.287Z,7.00
2018-07-21T04:52:05.286Z,6.97
2018-07-21T04:54:33.230Z,6.33
2018-07-21T04:57:01.213Z,6.83
2018-07-21T04:59:29.156Z,6.60
2018-07-21T05:01:57.128Z,5.80
2018-07-21T05:04:25.098Z,5.60
2018-07-21T05:06:53.062Z,6.30
2018-07-21T05:09:21.010Z,5.90
2018-07-21T05:11:48.997Z,5.60
2018-07-21T05:14:16.946Z,6.20
2018-07-21T05:16:45.117Z,6.07
2018-07-21T05:19:14.013Z,5.97
2018-07-21T05:21:43.124Z,6.13
2018-07-21T05:24:11.807Z,6.60
2018-07-21T05:26:39.813Z,4.50
2018-07-21T05:29:07.917Z,5.27
2018-07-21T05:31:35.859Z,6.10
2018-07-21T05:34:04.486Z,6.20
2018-07-21T05:36:32.462Z,6.10
2018-07-21T05:39:00.464Z,6.83
2018-07-21T05:41:28.462Z,5.90
2018-07-21T05:43:56.452Z,6.03
2018-07-21T05:46:24.419Z,5.97
2018-07-21T05:48:52.414Z,6.00
2018-07-21T05:51:20.358Z,7.40
2018-07-21T05:53:48.325Z,5.80
2018-07-21T05:56:16.518Z,5.10
2018-07-21T05:58:45.616Z,6.50
2018-07-21T06:01:14.913Z,6.60
2018-07-21T06:03:43.723Z,6.40
2018-07-21T06:06:11.999Z,6.90
2018-07-21T06:08:40.041Z,7.30
2018-07-21T06:11:08.070Z,5.97
2018-07-21T06:13:36.010Z,6.70
2018-07-21T06:16:03.978Z,7.23
2018-07-21T06:18:32.006Z,7.07
2018-07-21T06:20:59.961Z,6.70
2018-07-21T06:23:27.983Z,7.20
2018-07-21T06:25:55.980Z,6.40
2018-07-21T06:28:23.960Z,7.10
2018-07-21T06:30:51.997Z,6.47
2018-07-21T06:33:19.990Z,6.20
2018-07-21T06:35:47.932Z,6.07
2018-07-21T06:38:16.653Z,7.90
2018-07-21T06:40:45.870Z,6.03
2018-07-21T06:43:14.829Z,6.30
2018-07-21T06:45:43.093Z,6.23
2018-07-21T06:48:11.146Z,6.90
2018-07-21T06:50:39.141Z,6.90
2018-07-21T06:53:07.142Z,8.13
2018-07-21T06:55:35.156Z,6.80
2018-07-21T06:58:03.169Z,7.00
2018-07-21T07:00:31.123Z,8.00
2018-07-21T07:02:59.077Z,7.30
2018-07-21T07:05:27.083Z,6.80
2018-07-21T07:07:56.723Z,7.53
2018-07-21T07:10:24.713Z,6.90
2018-07-21T07:12:52.677Z,6.63
2018-07-21T07:15:20.640Z,6.30
2018-07-21T07:17:48.849Z,7.00
2018-07-21T07:20:17.501Z,7.07
2018-07-21T07:22:46.421Z,6.30
2018-07-21T07:25:15.012Z,6.17
2018-07-21T07:27:43.065Z,6.30
2018-07-21T07:30:11.065Z,5.27
2018-07-21T07:32:39.045Z,6.30
2018-07-21T07:35:07.218Z,5.60
2018-07-21T07:37:35.191Z,5.00
2018-07-21T07:40:03.806Z,4.75
2018-07-21T07:42:31.781Z,5.67
2018-07-21T07:44:59.761Z,4.43
2018-07-21T07:47:27.721Z,4.70
2018-07-21T07:49:55.729Z,5.33
2018-07-21T07:52:23.674Z,5.60
2018-07-21T07:54:51.818Z,5.60
2018-07-21T07:57:19.945Z,5.10
2018-07-21T07:59:48.659Z,5.87
2018-07-21T08:02:17.633Z,5.83
2018-07-21T08:04:46.216Z,5.23
2018-07-21T08:07:14.242Z,5.33
2018-07-21T08:09:42.244Z,5.90
2018-07-21T08:12:10.706Z,4.70
2018-07-21T08:14:38.729Z,5.00
2018-07-21T08:17:06.673Z,5.17
2018-07-21T08:19:34.645Z,5.83
2018-07-21T08:22:02.601Z,6.20
2018-07-21T08:24:30.575Z,6.13
2018-07-21T08:26:58.526Z,5.43
2018-07-21T08:29:26.494Z,5.50
2018-07-21T08:31:54.454Z,5.30
2018-07-21T08:34:22.412Z,5.40
2018-07-21T08:36:50.676Z,5.23
2018-07-21T08:39:19.730Z,6.07
2018-07-21T08:41:48.947Z,5.10
2018-07-21T08:44:17.517Z,5.00
2018-07-21T08:46:45.537Z,5.50
2018-07-21T08:49:13.474Z,4.60
2018-07-21T08:51:41.467Z,4.77
2018-07-21T08:54:09.431Z,5.73
2018-07-21T08:56:37.442Z,4.63
2018-07-21T08:59:05.400Z,5.97
2018-07-21T09:01:33.390Z,5.20
2018-07-21T09:04:01.362Z,5.00
2018-07-21T09:06:29.718Z,5.00
2018-07-21T09:08:57.681Z,4.70
2018-07-21T09:11:25.661Z,4.60
2018-07-21T09:13:53.710Z,4.93
2018-07-21T09:16:21.722Z,4.40
2018-07-21T09:18:49.686Z,5.13
2018-07-21T09:21:17.679Z,4.60
2018-07-21T09:23:45.629Z,5.20
2018-07-21T09:26:14.840Z,5.03
2018-07-21T09:28:42.782Z,4.30
2018-07-21T09:31:11.057Z,4.77
2018-07-21T09:33:40.007Z,4.60
2018-07-21T09:36:08.678Z,5.13
2018-07-21T09:38:36.744Z,4.60
2018-07-21T09:41:04.800Z,5.40
2018-07-21T09:43:32.750Z,5.00
2018-07-21T09:46:00.711Z,5.90
2018-07-21T09:48:28.693Z,5.10
2018-07-21T09:50:56.693Z,5.80
2018-07-21T09:53:24.645Z,6.03
2018-07-21T09:55:52.643Z,6.00
2018-07-21T09:58:21.352Z,4.70
2018-07-21T10:00:54.610Z,5.87
2018-07-21T10:03:22.565Z,6.47
2018-07-21T10:05:50.538Z,6.23
2018-07-21T10:08:18.499Z,5.70
2018-07-21T10:10:46.508Z,5.60
2018-07-21T10:13:15.029Z,5.40
2018-07-21T10:15:43.047Z,5.00
2018-07-21T10:18:12.506Z,5.70
2018-07-21T10:20:41.948Z,5.70
2018-07-21T10:23:10.995Z,5.50
2018-07-21T10:25:44.352Z,5.67
2018-07-21T10:28:18.011Z,5.40
2018-07-21T10:30:45.943Z,5.70
2018-07-21T10:33:13.997Z,5.40
2018-07-21T10:35:42.329Z,6.77
2018-07-21T10:38:11.404Z,6.40
2018-07-21T10:40:40.971Z,7.47
2018-07-21T10:43:09.755Z,5.43
2018-07-21T10:45:37.806Z,5.80
2018-07-21T10:48:05.617Z,5.70
2018-07-21T10:50:33.723Z,5.73
2018-07-21T10:53:01.702Z,6.27
2018-07-21T10:55:29.737Z,5.67
2018-07-21T10:57:57.775Z,6.40
2018-07-21T11:00:25.714Z,5.73
2018-07-21T11:02:53.787Z,7.77
2018-07-21T11:05:21.750Z,8.00
2018-07-21T11:07:49.710Z,8.60
2018-07-21T11:10:17.667Z,7.20
2018-07-21T11:12:45.633Z,6.97
2018-07-21T11:15:13.894Z,7.30
2018-07-21T11:17:42.888Z,6.50
2018-07-21T11:20:12.127Z,5.93
2018-07-21T11:22:40.754Z,8.17
2018-07-21T11:25:09.139Z,6.47
2018-07-21T11:27:37.334Z,6.17
2018-07-21T11:30:05.733Z,6.77
2018-07-21T11:32:33.683Z,6.27
2018-07-21T11:35:01.619Z,6.40
2018-07-21T11:37:29.629Z,6.60
2018-07-21T11:39:57.568Z,21.10
2018-07-21T11:42:25.521Z,7.03
2018-07-21T11:44:53.468Z,7.97
2018-07-21T11:47:21.467Z,7.70
2018-07-21T11:49:49.591Z,6.47
2018-07-21T11:52:17.565Z,7.20
2018-07-21T11:54:45.821Z,7.20
2018-07-21T11:57:14.122Z,7.37
2018-07-21T11:59:43.195Z,7.30
2018-07-21T12:02:12.064Z,7.80
2018-07-21T12:04:41.062Z,6.80
2018-07-21T12:07:09.061Z,8.40
2018-07-21T12:09:37.026Z,7.47
2018-07-21T12:12:05.006Z,7.90
2018-07-21T12:14:33.069Z,7.67
2018-07-21T12:17:01.108Z,7.40
2018-07-21T12:19:29.071Z,8.23
2018-07-21T12:21:57.043Z,7.37
2018-07-21T12:24:25.775Z,7.40
2018-07-21T12:26:54.470Z,7.00
2018-07-21T12:29:22.946Z,8.60
2018-07-21T12:31:51.080Z,6.80
2018-07-21T12:34:19.828Z,8.27
2018-07-21T12:36:47.877Z,8.37
2018-07-21T12:39:16.041Z,7.70
2018-07-21T12:41:44.818Z,16.07
2018-07-21T12:44:13.798Z,7.57
2018-07-21T12:46:42.384Z,8.47
2018-07-21T12:49:10.436Z,8.60
2018-07-21T12:51:38.448Z,7.60
2018-07-21T12:54:06.452Z,7.97
2018-07-21T12:56:34.468Z,7.43
2018-07-21T12:59:02.474Z,7.73
2018-07-21T13:01:30.449Z,7.63
2018-07-21T13:03:58.445Z,8.13
2018-07-21T13:06:26.435Z,7.10
2018-07-21T13:08:54.391Z,8.63
2018-07-21T13:11:22.396Z,7.63
2018-07-21T13:13:51.311Z,7.93
2018-07-21T13:16:19.294Z,7.30
2018-07-21T13:18:47.227Z,8.30
2018-07-21T13:21:15.947Z,7.63
2018-07-21T13:23:44.900Z,7.80
2018-07-21T13:26:13.805Z,8.50
2018-07-21T13:28:42.501Z,7.97
2018-07-21T13:31:10.895Z,8.33
2018-07-21T13:33:39.143Z,7.57
2018-07-21T13:36:07.451Z,9.43
2018-07-21T13:38:36.277Z,8.07
2018-07-21T13:41:04.947Z,7.30
2018-07-21T13:43:33.062Z,6.30
2018-07-21T13:46:01.237Z,8.37
2018-07-21T13:48:29.709Z,8.70
2018-07-21T13:50:57.890Z,7.87
2018-07-21T13:53:26.169Z,8.23
2018-07-21T13:55:54.815Z,25.50
2018-07-21T13:58:29.620Z,20.60
2018-07-21T14:00:57.958Z,9.10
2018-07-21T14:03:26.370Z,7.90
2018-07-21T14:05:55.224Z,8.40
2018-07-21T14:08:23.409Z,8.43
2018-07-21T14:10:51.555Z,7.07
2018-07-21T14:13:19.851Z,7.87
2018-07-21T14:15:48.662Z,6.20
2018-07-21T14:18:17.551Z,7.27
2018-07-21T14:20:47.163Z,6.97
2018-07-21T14:23:18.655Z,8.03
2018-07-21T14:25:48.625Z,6.50
2018-07-21T14:28:18.170Z,8.40
2018-07-21T14:30:47.865Z,6.47
2018-07-21T14:33:17.154Z,6.73
2018-07-21T14:35:45.947Z,7.97
2018-07-21T14:38:13.961Z,7.33
2018-07-21T14:40:41.969Z,7.47
2018-07-21T14:43:09.899Z,7.30
2018-07-21T14:45:37.879Z,6.67
2018-07-21T14:48:05.833Z,6.57
2018-07-21T14:50:33.798Z,7.30
2018-07-21T14:53:01.778Z,7.23
2018-07-21T14:55:29.752Z,7.47
2018-07-21T14:57:57.689Z,6.53
2018-07-21T15:00:25.676Z,6.57
2018-07-21T15:02:53.650Z,8.23
2018-07-21T15:05:21.837Z,7.40
2018-07-21T15:07:49.923Z,6.40
2018-07-21T15:10:18.624Z,6.80
2018-07-21T15:12:47.766Z,6.40
2018-07-21T15:15:17.513Z,6.30
2018-07-21T15:17:48.215Z,6.47
2018-07-21T15:20:17.247Z,7.20
2018-07-21T15:22:45.811Z,7.43
2018-07-21T15:25:14.067Z,7.47
2018-07-21T15:27:42.341Z,8.30
2018-07-21T15:30:10.318Z,9.43
2018-07-21T15:32:38.320Z,9.10
2018-07-21T15:35:06.288Z,7.53
2018-07-21T15:37:34.261Z,6.97
2018-07-21T15:40:02.237Z,6.93
2018-07-21T15:42:30.214Z,10.77
2018-07-21T15:44:58.244Z,11.43
2018-07-21T15:47:26.201Z,8.10
2018-07-21T15:49:54.145Z,8.03
2018-07-21T15:52:22.107Z,8.47
2018-07-21T15:54:50.357Z,7.40
2018-07-21T15:57:19.217Z,7.27
2018-07-21T15:59:48.301Z,16.00
2018-07-21T16:02:16.856Z,15.50
2018-07-21T16:04:44.926Z,9.60
2018-07-21T16:07:12.918Z,7.70
2018-07-21T16:09:40.935Z,6.93
2018-07-21T16:12:08.850Z,7.70
2018-07-21T16:14:36.854Z,8.27
2018-07-21T16:17:04.829Z,6.90
2018-07-21T16:19:32.785Z,7.60
2018-07-21T16:22:00.738Z,8.00
2018-07-21T16:24:28.689Z,7.50
2018-07-21T16:26:56.647Z,7.10
2018-07-21T16:29:24.597Z,7.60
2018-07-21T16:31:52.558Z,7.87
2018-07-21T16:34:20.978Z,8.70
2018-07-21T16:36:49.913Z,16.50
2018-07-21T16:39:18.816Z,7.67
2018-07-21T16:41:47.096Z,5.33
2018-07-21T16:44:15.124Z,6.63
2018-07-21T16:46:43.094Z,6.10
2018-07-21T16:49:11.045Z,6.90
2018-07-21T16:51:39.025Z,5.73
2018-07-21T16:54:06.964Z,6.30
2018-07-21T16:56:34.916Z,6.90
2018-07-21T16:59:02.858Z,7.00
2018-07-21T17:01:30.832Z,6.67
2018-07-21T17:03:58.786Z,7.50
2018-07-21T17:06:26.741Z,7.83
2018-07-21T17:08:54.700Z,7.30
2018-07-21T17:11:22.637Z,7.30
2018-07-21T17:13:51.436Z,6.80
2018-07-21T17:16:20.541Z,7.23
2018-07-21T17:18:49.196Z,7.47
2018-07-21T17:21:17.197Z,8.17
2018-07-21T17:23:45.220Z,7.10
2018-07-21T17:26:13.142Z,7.27
2018-07-21T17:28:41.113Z,9.37
2018-07-21T17:31:09.057Z,5.50
2018-07-21T17:33:37.026Z,8.43
2018-07-21T17:36:05.031Z,5.80
2018-07-21T17:38:33.007Z,8.23
2018-07-21T17:41:01.205Z,6.30
2018-07-21T17:43:29.240Z,7.77
2018-07-21T17:45:57.186Z,5.93
2018-07-21T17:48:25.162Z,7.00
2018-07-21T17:50:53.458Z,4.90
2018-07-21T17:53:22.139Z,5.30
2018-07-21T17:55:51.217Z,4.40
2018-07-21T17:58:21.030Z,4.40
2018-07-21T18:00:52.262Z,3.37
2018-07-21T18:03:21.837Z,3.47
2018-07-21T18:05:52.318Z,3.23
2018-07-21T18:08:21.504Z,3.30
2018-07-21T18:10:50.082Z,2.70
2018-07-21T18:13:18.130Z,3.70
2018-07-21T18:15:46.062Z,3.17
2018-07-21T18:18:14.040Z,2.70
2018-07-21T18:20:41.984Z,3.03
2018-07-21T18:23:09.941Z,3.23
2018-07-21T18:25:37.994Z,3.03
2018-07-21T18:28:06.008Z,3.73
2018-07-21T18:30:33.930Z,3.47
2018-07-21T18:33:01.994Z,3.57
2018-07-21T18:35:29.886Z,3.60
2018-07-21T18:37:57.892Z,3.40
2018-07-21T18:40:25.834Z,3.63
2018-07-21T18:42:53.984Z,3.40
2018-07-21T18:45:22.914Z,3.13
2018-07-21T18:47:51.910Z,3.37
2018-07-21T18:50:20.358Z,3.47
2018-07-21T18:52:48.346Z,3.50
2018-07-21T18:55:16.347Z,3.63
2018-07-21T18:57:44.285Z,3.80
2018-07-21T19:00:12.248Z,3.80
2018-07-21T19:02:40.203Z,3.40
2018-07-21T19:05:08.159Z,3.63
2018-07-21T19:07:36.086Z,3.70
2018-07-21T19:10:04.076Z,3.77
2018-07-21T19:12:37.220Z,5.97
2018-07-21T19:15:05.209Z,9.23
2018-07-21T19:17:33.150Z,5.00
2018-07-21T19:20:06.574Z,4.67
2018-07-21T19:22:34.522Z,4.97
2018-07-21T19:25:06.795Z,4.73
2018-07-21T19:27:34.728Z,4.93
2018-07-21T19:30:03.042Z,4.93
2018-07-21T19:32:36.405Z,5.53
2018-07-21T19:35:04.371Z,5.67
2018-07-21T19:37:37.544Z,4.53
2018-07-21T19:40:05.609Z,3.87
2018-07-21T19:42:33.538Z,4.97
2018-07-21T19:45:01.515Z,4.70
2018-07-21T19:47:29.468Z,3.90
2018-07-21T19:49:57.463Z,3.83
2018-07-21T19:52:25.540Z,4.30
2018-07-21T19:54:54.547Z,3.87
2018-07-21T19:57:23.471Z,4.17
2018-07-21T19:59:52.184Z,3.70
2018-07-21T20:02:20.171Z,4.20
2018-07-21T20:04:48.269Z,4.87
2018-07-21T20:07:16.201Z,4.80
2018-07-21T20:09:44.176Z,4.70
2018-07-21T20:12:12.107Z,6.03
2018-07-21T20:14:40.094Z,5.30
2018-07-21T20:17:08.043Z,5.90
2018-07-21T20:19:35.998Z,5.90
2018-07-21T20:22:03.939Z,6.27
2018-07-21T20:24:31.895Z,6.17
2018-07-21T20:26:59.842Z,6.60
2018-07-21T20:29:27.822Z,5.33
2018-07-21T20:31:56.106Z,5.40
2018-07-21T20:34:25.035Z,5.57
2018-07-21T20:36:54.012Z,5.43
2018-07-21T20:39:22.667Z,5.30
2018-07-21T20:41:50.654Z,4.60
2018-07-21T20:44:18.588Z,4.70
2018-07-21T20:46:46.556Z,4.83
2018-07-21T20:49:14.475Z,5.00
2018-07-21T20:51:42.457Z,4.17
2018-07-21T20:54:10.385Z,5.67
2018-07-21T20:56:38.365Z,29.77
2018-07-21T20:59:06.311Z,8.37
2018-07-21T21:01:34.293Z,4.70
2018-07-21T21:04:02.216Z,4.93
2018-07-21T21:06:30.203Z,5.20
2018-07-21T21:08:58.133Z,4.53
2018-07-21T21:11:26.603Z,4.17
2018-07-21T21:13:55.592Z,4.63
2018-07-21T21:16:24.257Z,4.50
2018-07-21T21:18:52.223Z,4.43
2018-07-21T21:21:20.423Z,4.80
2018-07-21T21:23:48.401Z,5.07
2018-07-21T21:26:16.403Z,5.33
2018-07-21T21:28:44.461Z,5.93
2018-07-21T21:31:12.411Z,4.97
2018-07-21T21:33:40.333Z,4.50
2018-07-21T21:36:08.305Z,5.50
2018-07-21T21:38:36.270Z,3.53
2018-07-21T21:41:04.280Z,5.07
2018-07-21T21:43:32.212Z,4.20
2018-07-21T21:46:00.170Z,3.80
2018-07-21T21:48:28.216Z,4.70
2018-07-21T21:50:57.083Z,4.50
2018-07-21T21:53:26.060Z,4.80
2018-07-21T21:55:54.635Z,5.77
2018-07-21T21:58:22.657Z,5.67
2018-07-21T22:00:58.856Z,4.97
2018-07-21T22:03:28.105Z,5.80
2018-07-21T22:05:57.423Z,6.33
2018-07-21T22:08:26.344Z,6.77
2018-07-21T22:10:54.947Z,6.83
2018-07-21T22:13:22.977Z,8.40
2018-07-21T22:15:50.936Z,8.80
2018-07-21T22:18:18.904Z,9.00
2018-07-21T22:20:46.906Z,9.53
2018-07-21T22:23:14.870Z,13.60
2018-07-21T22:25:42.840Z,14.40
2018-07-21T22:28:10.833Z,16.57
2018-07-21T22:30:38.797Z,15.70
2018-07-21T22:33:06.783Z,15.03
2018-07-21T22:35:34.737Z,14.97
2018-07-21T22:38:03.217Z,14.67
2018-07-21T22:40:31.167Z,14.37
2018-07-21T22:42:59.600Z,13.17
2018-07-21T22:45:28.793Z,13.43
2018-07-21T22:47:57.798Z,13.30
2018-07-21T22:50:26.659Z,10.57
2018-07-21T22:52:55.247Z,11.20
2018-07-21T22:55:23.248Z,10.77
2018-07-21T22:57:51.277Z,10.20
2018-07-21T23:00:19.237Z,10.43
2018-07-21T23:02:47.239Z,10.60
2018-07-21T23:05:15.195Z,10.57
2018-07-21T23:07:43.173Z,10.50
2018-07-21T23:10:11.118Z,10.17
2018-07-21T23:12:39.092Z,11.20
2018-07-21T23:15:07.882Z,9.73
2018-07-21T23:17:35.910Z,9.40
2018-07-21T23:20:04.504Z,9.80
2018-07-21T23:22:32.484Z,11.60
2018-07-21T23:25:00.564Z,11.20
2018-07-21T23:27:29.247Z,12.27
2018-07-21T23:29:58.266Z,10.77
2018-07-21T23:32:26.859Z,11.10
2018-07-21T23:34:54.877Z,11.00
2018-07-21T23:37:22.888Z,10.83
2018-07-21T23:39:50.869Z,11.87
2018-07-21T23:42:18.842Z,10.77
2018-07-21T23:44:46.803Z,10.70
2018-07-21T23:47:14.827Z,10.73
2018-07-21T23:49:42.771Z,11.63
2018-07-21T23:52:10.710Z,11.57
2018-07-21T23:54:38.690Z,9.87
2018-07-21T23:57:06.791Z,10.60
2018-07-21T23:59:34.755Z,10.93
